sensor_id;sensor_type;location;lat;lon;timestamp;pressure;altitude;pressure_sealevel;temperature;humidity
24752;BME280;27246;52.376;4.628;2023-04-30T00:00:13;102287.03;;;10.21;74.32
24752;BME280;27246;52.376;4.628;2023-04-30T00:05:15;102280.97;;;10.18;75.37
24752;BME280;27246;52.376;4.628;2023-04-30T00:10:16;102285.75;;;10.16;75.26
24752;BME280;27246;52.376;4.628;2023-04-30T00:15:20;102287.19;;;10.10;75.81
24752;BME280;27246;52.376;4.628;2023-04-30T00:20:22;102279.09;;;9.99;76.45
24752;BME280;27246;52.376;4.628;2023-04-30T00:25:23;102287.78;;;9.94;77.08
24752;BME280;27246;52.376;4.628;2023-04-30T00:30:25;102285.75;;;9.96;77.49
24752;BME280;27246;52.376;4.628;2023-04-30T00:35:27;102288.50;;;9.96;77.06
24752;BME280;27246;52.376;4.628;2023-04-30T00:40:28;102291.25;;;9.96;77.89
24752;BME280;27246;52.376;4.628;2023-04-30T00:45:30;102288.66;;;9.95;77.62
24752;BME280;27246;52.376;4.628;2023-04-30T00:50:35;102293.28;;;9.94;78.42
24752;BME280;27246;52.376;4.628;2023-04-30T00:55:38;102277.78;;;9.93;78.12
24752;BME280;27246;52.376;4.628;2023-04-30T01:00:41;102292.72;;;9.91;78.71
24752;BME280;27246;52.376;4.628;2023-04-30T01:05:48;102295.75;;;9.88;78.04
24752;BME280;27246;52.376;4.628;2023-04-30T01:16:14;102296.06;;;9.85;79.49
24752;BME280;27246;52.376;4.628;2023-04-30T01:21:23;102291.41;;;9.85;79.35
24752;BME280;27246;52.376;4.628;2023-04-30T01:27:12;102301.53;;;9.94;79.70
24752;BME280;27246;52.376;4.628;2023-04-30T01:32:16;102311.41;;;9.97;79.13
24752;BME280;27246;52.376;4.628;2023-04-30T01:37:42;102304.47;;;9.93;79.35
24752;BME280;27246;52.376;4.628;2023-04-30T01:43:09;102304.75;;;9.90;79.61
24752;BME280;27246;52.376;4.628;2023-04-30T01:53:45;102298.94;;;9.73;80.94
24752;BME280;27246;52.376;4.628;2023-04-30T01:58:51;102291.09;;;9.59;81.66
24752;BME280;27246;52.376;4.628;2023-04-30T02:03:54;102296.03;;;9.65;81.76
24752;BME280;27246;52.376;4.628;2023-04-30T02:08:56;102298.06;;;9.63;81.85
24752;BME280;27246;52.376;4.628;2023-04-30T02:14:06;102304.72;;;9.60;81.65
24752;BME280;27246;52.376;4.628;2023-04-30T02:19:09;102297.03;;;9.64;81.90
24752;BME280;27246;52.376;4.628;2023-04-30T02:24:11;102298.03;;;9.53;81.80
24752;BME280;27246;52.376;4.628;2023-04-30T02:29:13;102288.19;;;9.51;82.38
24752;BME280;27246;52.376;4.628;2023-04-30T02:34:14;102288.16;;;9.31;82.63
24752;BME280;27246;52.376;4.628;2023-04-30T02:39:16;102275.41;;;9.40;81.88
24752;BME280;27246;52.376;4.628;2023-04-30T02:44:18;102266.78;;;9.45;81.91
24752;BME280;27246;52.376;4.628;2023-04-30T02:49:20;102269.63;;;9.33;82.61
24752;BME280;27246;52.376;4.628;2023-04-30T02:54:22;102272.38;;;9.33;83.11
24752;BME280;27246;52.376;4.628;2023-04-30T02:59:23;102276.00;;;9.34;82.90
24752;BME280;27246;52.376;4.628;2023-04-30T03:04:25;102287.31;;;9.40;82.90
24752;BME280;27246;52.376;4.628;2023-04-30T03:09:30;102276.28;;;9.31;83.14
24752;BME280;27246;52.376;4.628;2023-04-30T03:14:32;102276.38;;;9.29;83.51
24752;BME280;27246;52.376;4.628;2023-04-30T03:19:34;102270.16;;;9.27;83.73
24752;BME280;27246;52.376;4.628;2023-04-30T03:24:37;102270.16;;;9.27;83.89
24752;BME280;27246;52.376;4.628;2023-04-30T03:29:38;102276.78;;;9.15;83.65
24752;BME280;27246;52.376;4.628;2023-04-30T03:34:40;102271.31;;;9.25;84.04
24752;BME280;27246;52.376;4.628;2023-04-30T03:39:41;102262.03;;;9.16;83.90
24752;BME280;27246;52.376;4.628;2023-04-30T03:44:43;102270.00;;;9.19;84.35
24752;BME280;27246;52.376;4.628;2023-04-30T03:49:46;102271.16;;;9.16;83.89
24752;BME280;27246;52.376;4.628;2023-04-30T03:54:56;102261.84;;;9.08;84.06
24752;BME280;27246;52.376;4.628;2023-04-30T03:59:58;102261.72;;;9.09;83.69
24752;BME280;27246;52.376;4.628;2023-04-30T04:05:00;102258.13;;;9.09;83.98
24752;BME280;27246;52.376;4.628;2023-04-30T04:10:02;102245.09;;;9.11;84.18
24752;BME280;27246;52.376;4.628;2023-04-30T04:15:06;102249.00;;;9.08;84.68
24752;BME280;27246;52.376;4.628;2023-04-30T04:20:08;102260.09;;;8.97;84.45
24752;BME280;27246;52.376;4.628;2023-04-30T04:25:14;102260.56;;;9.02;85.46
24752;BME280;27246;52.376;4.628;2023-04-30T04:30:18;102271.00;;;9.08;84.90
24752;BME280;27246;52.376;4.628;2023-04-30T04:35:21;102271.69;;;9.00;84.99
24752;BME280;27246;52.376;4.628;2023-04-30T04:40:23;102273.53;;;8.90;85.65
24752;BME280;27246;52.376;4.628;2023-04-30T04:45:25;102275.44;;;8.99;85.54
24752;BME280;27246;52.376;4.628;2023-04-30T04:50:27;102267.69;;;8.84;85.94
24752;BME280;27246;52.376;4.628;2023-04-30T04:55:29;102281.72;;;8.80;86.18
24752;BME280;27246;52.376;4.628;2023-04-30T05:00:31;102288.56;;;8.86;86.48
24752;BME280;27246;52.376;4.628;2023-04-30T05:05:34;102297.25;;;8.91;85.80
24752;BME280;27246;52.376;4.628;2023-04-30T05:10:36;102287.72;;;8.95;85.94
24752;BME280;27246;52.376;4.628;2023-04-30T05:15:38;102281.56;;;8.72;87.07
24752;BME280;27246;52.376;4.628;2023-04-30T05:20:42;102285.56;;;8.68;88.20
24752;BME280;27246;52.376;4.628;2023-04-30T05:25:44;102281.25;;;8.66;88.94
24752;BME280;27246;52.376;4.628;2023-04-30T05:30:46;102290.94;;;8.70;89.25
24752;BME280;27246;52.376;4.628;2023-04-30T05:35:50;102295.41;;;8.71;88.81
24752;BME280;27246;52.376;4.628;2023-04-30T05:40:52;102286.03;;;8.73;89.09
24752;BME280;27246;52.376;4.628;2023-04-30T05:45:53;102301.81;;;8.81;89.35
24752;BME280;27246;52.376;4.628;2023-04-30T05:50:55;102310.59;;;9.06;88.63
24752;BME280;27246;52.376;4.628;2023-04-30T05:55:57;102311.81;;;9.13;88.23
24752;BME280;27246;52.376;4.628;2023-04-30T06:00:59;102323.06;;;9.10;87.63
24752;BME280;27246;52.376;4.628;2023-04-30T06:06:00;102325.38;;;9.05;88.01
24752;BME280;27246;52.376;4.628;2023-04-30T06:11:02;102324.16;;;8.97;87.41
24752;BME280;27246;52.376;4.628;2023-04-30T06:16:06;102333.44;;;8.96;88.59
24752;BME280;27246;52.376;4.628;2023-04-30T06:21:08;102326.91;;;8.97;88.79
24752;BME280;27246;52.376;4.628;2023-04-30T06:26:10;102321.75;;;9.04;88.72
24752;BME280;27246;52.376;4.628;2023-04-30T06:31:15;102320.78;;;9.15;88.04
24752;BME280;27246;52.376;4.628;2023-04-30T06:36:20;102319.03;;;9.14;88.03
24752;BME280;27246;52.376;4.628;2023-04-30T06:41:21;102318.56;;;9.39;88.23
24752;BME280;27246;52.376;4.628;2023-04-30T06:46:23;102321.50;;;9.57;87.30
24752;BME280;27246;52.376;4.628;2023-04-30T06:51:25;102317.00;;;9.66;86.57
24752;BME280;27246;52.376;4.628;2023-04-30T06:56:27;102321.38;;;9.59;86.65
24752;BME280;27246;52.376;4.628;2023-04-30T07:01:28;102322.09;;;9.61;85.79
24752;BME280;27246;52.376;4.628;2023-04-30T07:06:32;102333.41;;;9.77;85.50
24752;BME280;27246;52.376;4.628;2023-04-30T07:11:34;102327.06;;;9.87;84.86
24752;BME280;27246;52.376;4.628;2023-04-30T07:16:36;102326.34;;;9.85;81.96
24752;BME280;27246;52.376;4.628;2023-04-30T07:21:38;102327.50;;;10.01;81.83
24752;BME280;27246;52.376;4.628;2023-04-30T07:26:39;102329.94;;;10.24;81.30
24752;BME280;27246;52.376;4.628;2023-04-30T07:31:42;102335.59;;;10.32;80.01
24752;BME280;27246;52.376;4.628;2023-04-30T07:36:44;102334.84;;;10.40;78.56
24752;BME280;27246;52.376;4.628;2023-04-30T07:41:51;102325.25;;;10.64;78.79
24752;BME280;27246;52.376;4.628;2023-04-30T07:46:52;102327.50;;;10.88;76.27
24752;BME280;27246;52.376;4.628;2023-04-30T07:51:54;102329.94;;;11.00;76.91
24752;BME280;27246;52.376;4.628;2023-04-30T07:56:56;102325.41;;;11.37;74.41
24752;BME280;27246;52.376;4.628;2023-04-30T08:01:58;102328.78;;;11.31;71.69
24752;BME280;27246;52.376;4.628;2023-04-30T08:07:00;102330.47;;;11.41;71.50
24752;BME280;27246;52.376;4.628;2023-04-30T08:12:03;102327.97;;;11.66;71.15
24752;BME280;27246;52.376;4.628;2023-04-30T08:17:05;102326.72;;;11.78;70.18
24752;BME280;27246;52.376;4.628;2023-04-30T08:22:07;102319.78;;;12.10;69.24
24752;BME280;27246;52.376;4.628;2023-04-30T08:27:09;102326.81;;;12.23;67.41
24752;BME280;27246;52.376;4.628;2023-04-30T08:32:10;102338.66;;;12.51;66.67
24752;BME280;27246;52.376;4.628;2023-04-30T08:37:15;102337.03;;;12.66;66.44
24752;BME280;27246;52.376;4.628;2023-04-30T08:42:24;102339.81;;;12.92;65.95
24752;BME280;27246;52.376;4.628;2023-04-30T08:47:26;102328.66;;;13.10;64.09
24752;BME280;27246;52.376;4.628;2023-04-30T08:52:29;102322.03;;;13.37;63.36
24752;BME280;27246;52.376;4.628;2023-04-30T08:57:35;102322.19;;;13.36;63.09
24752;BME280;27246;52.376;4.628;2023-04-30T09:02:39;102329.00;;;13.50;61.00
24752;BME280;27246;52.376;4.628;2023-04-30T09:07:43;102326.81;;;13.62;61.52
24752;BME280;27246;52.376;4.628;2023-04-30T09:13:07;102325.69;;;14.05;61.08
24752;BME280;27246;52.376;4.628;2023-04-30T09:18:15;102317.38;;;14.05;60.11
24752;BME280;27246;52.376;4.628;2023-04-30T09:23:20;102316.84;;;14.51;58.53
24752;BME280;27246;52.376;4.628;2023-04-30T09:28:23;102309.41;;;14.59;58.17
24752;BME280;27246;52.376;4.628;2023-04-30T09:33:27;102309.41;;;14.51;57.73
24752;BME280;27246;52.376;4.628;2023-04-30T09:38:30;102305.56;;;14.77;57.02
24752;BME280;27246;52.376;4.628;2023-04-30T09:43:32;102303.16;;;14.82;56.89
24752;BME280;27246;52.376;4.628;2023-04-30T09:48:34;102292.03;;;15.30;55.65
24752;BME280;27246;52.376;4.628;2023-04-30T09:53:41;102288.31;;;15.46;55.03
24752;BME280;27246;52.376;4.628;2023-04-30T09:58:47;102286.38;;;15.77;53.98
24752;BME280;27246;52.376;4.628;2023-04-30T10:03:52;102284.13;;;15.50;54.63
24752;BME280;27246;52.376;4.628;2023-04-30T10:08:56;102288.84;;;15.72;54.95
24752;BME280;27246;52.376;4.628;2023-04-30T10:14:09;102275.50;;;15.99;53.27
24752;BME280;27246;52.376;4.628;2023-04-30T10:19:25;102281.53;;;16.03;52.46
24752;BME280;27246;52.376;4.628;2023-04-30T10:24:30;102284.00;;;16.58;51.89
24752;BME280;27246;52.376;4.628;2023-04-30T10:29:32;102280.47;;;16.79;50.83
24752;BME280;27246;52.376;4.628;2023-04-30T10:34:42;102277.38;;;16.74;51.30
24752;BME280;27246;52.376;4.628;2023-04-30T10:39:50;102272.78;;;16.67;50.64
24752;BME280;27246;52.376;4.628;2023-04-30T10:44:53;102261.78;;;17.03;49.99
24752;BME280;27246;52.376;4.628;2023-04-30T10:50:07;102265.78;;;17.30;50.32
24752;BME280;27246;52.376;4.628;2023-04-30T10:55:09;102255.66;;;17.08;49.50
24752;BME280;27246;52.376;4.628;2023-04-30T11:05:16;102242.84;;;17.50;48.38
24752;BME280;27246;52.376;4.628;2023-04-30T11:10:22;102237.28;;;17.50;49.13
24752;BME280;27246;52.376;4.628;2023-04-30T11:15:25;102227.59;;;17.82;46.65
24752;BME280;27246;52.376;4.628;2023-04-30T11:20:27;102222.56;;;18.21;46.37
24752;BME280;27246;52.376;4.628;2023-04-30T11:25:38;102207.66;;;18.35;47.31
24752;BME280;27246;52.376;4.628;2023-04-30T11:30:47;102215.16;;;18.06;47.15
24752;BME280;27246;52.376;4.628;2023-04-30T11:35:51;102207.53;;;18.15;45.19
24752;BME280;27246;52.376;4.628;2023-04-30T11:40:54;102202.53;;;18.10;44.33
24752;BME280;27246;52.376;4.628;2023-04-30T11:46:07;102195.34;;;18.23;45.11
24752;BME280;27246;52.376;4.628;2023-04-30T11:51:17;102188.16;;;18.07;45.28
24752;BME280;27246;52.376;4.628;2023-04-30T11:56:22;102168.06;;;18.53;45.00
24752;BME280;27246;52.376;4.628;2023-04-30T12:01:26;102171.00;;;18.73;43.81
24752;BME280;27246;52.376;4.628;2023-04-30T12:06:29;102167.94;;;19.09;44.07
24752;BME280;27246;52.376;4.628;2023-04-30T12:11:33;102165.38;;;19.08;43.73
24752;BME280;27246;52.376;4.628;2023-04-30T12:16:50;102152.53;;;19.27;43.05
24752;BME280;27246;52.376;4.628;2023-04-30T12:21:53;102153.13;;;19.15;42.21
24752;BME280;27246;52.376;4.628;2023-04-30T12:26:58;102152.53;;;19.33;41.92
24752;BME280;27246;52.376;4.628;2023-04-30T12:32:00;102147.97;;;19.06;43.29
24752;BME280;27246;52.376;4.628;2023-04-30T12:37:04;102143.72;;;19.30;42.90
24752;BME280;27246;52.376;4.628;2023-04-30T12:42:06;102136.50;;;18.52;44.38
24752;BME280;27246;52.376;4.628;2023-04-30T12:47:11;102137.56;;;18.86;44.00
24752;BME280;27246;52.376;4.628;2023-04-30T12:52:14;102123.84;;;18.91;42.28
24752;BME280;27246;52.376;4.628;2023-04-30T12:57:16;102129.28;;;18.65;43.76
24752;BME280;27246;52.376;4.628;2023-04-30T13:02:25;102121.34;;;19.30;41.92
24752;BME280;27246;52.376;4.628;2023-04-30T13:07:35;102121.41;;;19.36;42.33
24752;BME280;27246;52.376;4.628;2023-04-30T13:12:39;102114.50;;;19.32;42.74
24752;BME280;27246;52.376;4.628;2023-04-30T13:17:40;102103.28;;;19.12;42.84
24752;BME280;27246;52.376;4.628;2023-04-30T13:22:42;102098.59;;;19.33;42.16
24752;BME280;27246;52.376;4.628;2023-04-30T13:27:45;102097.41;;;18.39;44.12
24752;BME280;27246;52.376;4.628;2023-04-30T13:32:46;102093.84;;;18.17;43.31
24752;BME280;27246;52.376;4.628;2023-04-30T13:37:49;102081.97;;;18.43;43.69
24752;BME280;27246;52.376;4.628;2023-04-30T13:42:53;102079.78;;;18.80;41.95
24752;BME280;27246;52.376;4.628;2023-04-30T13:47:54;102075.25;;;18.79;41.89
24752;BME280;27246;52.376;4.628;2023-04-30T13:52:56;102071.28;;;18.18;44.20
24752;BME280;27246;52.376;4.628;2023-04-30T13:57:59;102072.53;;;18.09;43.62
24752;BME280;27246;52.376;4.628;2023-04-30T14:03:01;102066.50;;;18.06;43.89
24752;BME280;27246;52.376;4.628;2023-04-30T14:08:06;102059.25;;;18.11;45.05
24752;BME280;27246;52.376;4.628;2023-04-30T14:13:08;102053.63;;;18.39;44.61
24752;BME280;27246;52.376;4.628;2023-04-30T14:18:09;102052.97;;;18.03;44.29
24752;BME280;27246;52.376;4.628;2023-04-30T14:23:11;102047.06;;;17.84;45.08
24752;BME280;27246;52.376;4.628;2023-04-30T14:28:13;102034.91;;;17.70;44.89
24752;BME280;27246;52.376;4.628;2023-04-30T14:33:15;102040.78;;;17.54;42.53
24752;BME280;27246;52.376;4.628;2023-04-30T14:38:25;102038.97;;;17.96;42.84
24752;BME280;27246;52.376;4.628;2023-04-30T14:43:27;102035.19;;;17.75;42.79
24752;BME280;27246;52.376;4.628;2023-04-30T14:48:29;102036.69;;;18.06;41.56
24752;BME280;27246;52.376;4.628;2023-04-30T14:53:31;102027.88;;;18.44;40.44
24752;BME280;27246;52.376;4.628;2023-04-30T14:58:33;102027.41;;;18.34;40.24
24752;BME280;27246;52.376;4.628;2023-04-30T15:03:35;102013.59;;;18.19;41.30
24752;BME280;27246;52.376;4.628;2023-04-30T15:08:37;102001.50;;;18.53;40.62
24752;BME280;27246;52.376;4.628;2023-04-30T15:13:39;101995.09;;;18.66;39.45
24752;BME280;27246;52.376;4.628;2023-04-30T15:18:41;101986.81;;;18.86;40.06
24752;BME280;27246;52.376;4.628;2023-04-30T15:23:43;101982.47;;;18.77;39.80
24752;BME280;27246;52.376;4.628;2023-04-30T15:28:46;101974.56;;;19.01;40.51
24752;BME280;27246;52.376;4.628;2023-04-30T15:33:49;101982.34;;;19.12;40.47
24752;BME280;27246;52.376;4.628;2023-04-30T15:38:51;101976.47;;;18.93;40.97
24752;BME280;27246;52.376;4.628;2023-04-30T15:43:53;101972.13;;;18.57;41.08
24752;BME280;27246;52.376;4.628;2023-04-30T15:48:55;101977.25;;;18.47;41.02
24752;BME280;27246;52.376;4.628;2023-04-30T15:53:57;101974.06;;;18.70;39.98
24752;BME280;27246;52.376;4.628;2023-04-30T15:58:59;101957.78;;;18.74;40.47
24752;BME280;27246;52.376;4.628;2023-04-30T16:04:01;101947.84;;;18.58;42.56
24752;BME280;27246;52.376;4.628;2023-04-30T16:09:05;101950.84;;;18.56;42.11
24752;BME280;27246;52.376;4.628;2023-04-30T16:14:07;101943.31;;;18.37;42.09
24752;BME280;27246;52.376;4.628;2023-04-30T16:19:09;101947.41;;;17.93;43.66
24752;BME280;27246;52.376;4.628;2023-04-30T16:24:12;101941.84;;;17.93;44.95
24752;BME280;27246;52.376;4.628;2023-04-30T16:29:18;101933.28;;;18.01;44.05
24752;BME280;27246;52.376;4.628;2023-04-30T16:34:20;101919.16;;;18.09;43.70
24752;BME280;27246;52.376;4.628;2023-04-30T16:39:22;101916.97;;;17.98;44.45
24752;BME280;27246;52.376;4.628;2023-04-30T16:44:23;101916.13;;;18.04;45.65
24752;BME280;27246;52.376;4.628;2023-04-30T16:49:25;101914.81;;;17.93;45.46
24752;BME280;27246;52.376;4.628;2023-04-30T16:54:27;101912.84;;;17.81;46.20
24752;BME280;27246;52.376;4.628;2023-04-30T16:59:29;101909.63;;;17.49;46.31
24752;BME280;27246;52.376;4.628;2023-04-30T17:04:31;101903.50;;;17.32;46.85
24752;BME280;27246;52.376;4.628;2023-04-30T17:09:33;101898.88;;;17.17;47.70
24752;BME280;27246;52.376;4.628;2023-04-30T17:14:36;101893.28;;;17.11;48.55
24752;BME280;27246;52.376;4.628;2023-04-30T17:19:38;101886.56;;;16.98;48.36
24752;BME280;27246;52.376;4.628;2023-04-30T17:24:40;101890.75;;;16.88;48.11
24752;BME280;27246;52.376;4.628;2023-04-30T17:29:41;101883.09;;;16.75;49.32
24752;BME280;27246;52.376;4.628;2023-04-30T17:34:46;101885.50;;;16.56;50.01
24752;BME280;27246;52.376;4.628;2023-04-30T17:39:48;101888.56;;;16.40;50.72
24752;BME280;27246;52.376;4.628;2023-04-30T17:44:50;101888.69;;;16.32;51.32
24752;BME280;27246;52.376;4.628;2023-04-30T17:49:52;101885.63;;;16.27;51.17
24752;BME280;27246;52.376;4.628;2023-04-30T17:54:54;101884.94;;;16.03;52.21
24752;BME280;27246;52.376;4.628;2023-04-30T17:59:57;101885.81;;;16.04;52.28
24752;BME280;27246;52.376;4.628;2023-04-30T18:04:59;101884.28;;;16.01;52.57
24752;BME280;27246;52.376;4.628;2023-04-30T18:10:01;101872.22;;;15.94;52.70
24752;BME280;27246;52.376;4.628;2023-04-30T18:15:05;101884.50;;;15.85;53.52
24752;BME280;27246;52.376;4.628;2023-04-30T18:20:09;101882.09;;;15.82;53.81
24752;BME280;27246;52.376;4.628;2023-04-30T18:25:13;101874.22;;;15.70;54.64
24752;BME280;27246;52.376;4.628;2023-04-30T18:30:19;101872.81;;;15.59;55.18
24752;BME280;27246;52.376;4.628;2023-04-30T18:35:21;101877.88;;;15.56;55.42
24752;BME280;27246;52.376;4.628;2023-04-30T18:40:23;101874.16;;;15.49;55.60
24752;BME280;27246;52.376;4.628;2023-04-30T18:45:25;101871.75;;;15.46;55.88
24752;BME280;27246;52.376;4.628;2023-04-30T18:50:27;101870.34;;;15.35;56.52
24752;BME280;27246;52.376;4.628;2023-04-30T18:55:29;101874.94;;;15.43;56.53
24752;BME280;27246;52.376;4.628;2023-04-30T19:00:31;101871.50;;;15.40;56.49
24752;BME280;27246;52.376;4.628;2023-04-30T19:05:33;101862.47;;;15.24;57.53
24752;BME280;27246;52.376;4.628;2023-04-30T19:10:47;101870.13;;;15.22;57.96
24752;BME280;27246;52.376;4.628;2023-04-30T19:16:02;101870.88;;;15.15;57.28
24752;BME280;27246;52.376;4.628;2023-04-30T19:21:04;101858.94;;;15.00;57.97
24752;BME280;27246;52.376;4.628;2023-04-30T19:26:06;101863.91;;;14.90;58.60
24752;BME280;27246;52.376;4.628;2023-04-30T19:31:08;101861.56;;;14.78;59.23
24752;BME280;27246;52.376;4.628;2023-04-30T19:36:09;101868.41;;;14.68;59.61
24752;BME280;27246;52.376;4.628;2023-04-30T19:41:12;101859.28;;;14.59;60.17
24752;BME280;27246;52.376;4.628;2023-04-30T19:46:13;101870.84;;;14.63;60.02
24752;BME280;27246;52.376;4.628;2023-04-30T19:51:19;101863.59;;;14.62;60.78
24752;BME280;27246;52.376;4.628;2023-04-30T19:56:21;101862.63;;;14.54;60.75
24752;BME280;27246;52.376;4.628;2023-04-30T20:01:26;101863.09;;;14.58;61.42
24752;BME280;27246;52.376;4.628;2023-04-30T20:06:29;101868.84;;;14.56;61.62
24752;BME280;27246;52.376;4.628;2023-04-30T20:11:30;101860.22;;;14.51;62.32
24752;BME280;27246;52.376;4.628;2023-04-30T20:16:33;101853.16;;;14.26;62.92
24752;BME280;27246;52.376;4.628;2023-04-30T20:21:35;101851.41;;;14.25;63.70
24752;BME280;27246;52.376;4.628;2023-04-30T20:26:37;101851.06;;;14.28;63.81
24752;BME280;27246;52.376;4.628;2023-04-30T20:31:39;101847.22;;;14.29;64.62
24752;BME280;27246;52.376;4.628;2023-04-30T20:36:45;101840.69;;;14.22;64.80
24752;BME280;27246;52.376;4.628;2023-04-30T20:42:11;101847.28;;;14.20;65.72
24752;BME280;27246;52.376;4.628;2023-04-30T20:47:28;101841.44;;;14.15;66.02
24752;BME280;27246;52.376;4.628;2023-04-30T20:52:39;101844.56;;;14.12;66.37
24752;BME280;27246;52.376;4.628;2023-04-30T20:57:48;101834.59;;;14.03;66.80
24752;BME280;27246;52.376;4.628;2023-04-30T21:02:56;101842.03;;;14.03;67.41
24752;BME280;27246;52.376;4.628;2023-04-30T21:08:04;101835.13;;;13.98;68.38
24752;BME280;27246;52.376;4.628;2023-04-30T21:13:18;101835.00;;;13.92;68.62
24752;BME280;27246;52.376;4.628;2023-04-30T21:18:24;101827.38;;;13.94;69.44
24752;BME280;27246;52.376;4.628;2023-04-30T21:23:42;101826.69;;;13.92;69.51
24752;BME280;27246;52.376;4.628;2023-04-30T21:28:53;101810.25;;;13.90;69.95
24752;BME280;27246;52.376;4.628;2023-04-30T21:33:55;101817.03;;;13.88;70.07
24752;BME280;27246;52.376;4.628;2023-04-30T21:39:18;101807.25;;;13.77;70.96
24752;BME280;27246;52.376;4.628;2023-04-30T21:44:21;101810.38;;;13.74;71.12
24752;BME280;27246;52.376;4.628;2023-04-30T21:49:27;101805.22;;;13.71;71.12
24752;BME280;27246;52.376;4.628;2023-04-30T21:54:45;101800.53;;;13.71;71.45
24752;BME280;27246;52.376;4.628;2023-04-30T22:00:00;101786.72;;;13.63;72.19
24752;BME280;27246;52.376;4.628;2023-04-30T22:05:18;101792.63;;;13.60;72.72
24752;BME280;27246;52.376;4.628;2023-04-30T22:10:22;101780.53;;;13.53;72.36
24752;BME280;27246;52.376;4.628;2023-04-30T22:15:32;101773.63;;;13.49;72.80
24752;BME280;27246;52.376;4.628;2023-04-30T22:20:51;101769.31;;;13.46;73.73
24752;BME280;27246;52.376;4.628;2023-04-30T22:25:53;101767.09;;;13.41;73.67
24752;BME280;27246;52.376;4.628;2023-04-30T22:31:04;101766.94;;;13.35;73.76
24752;BME280;27246;52.376;4.628;2023-04-30T22:36:12;101763.31;;;13.34;73.65
24752;BME280;27246;52.376;4.628;2023-04-30T22:41:19;101757.16;;;13.24;74.01
24752;BME280;27246;52.376;4.628;2023-04-30T22:46:22;101762.00;;;13.22;74.20
24752;BME280;27246;52.376;4.628;2023-04-30T22:51:25;101772.56;;;13.18;74.13
24752;BME280;27246;52.376;4.628;2023-04-30T22:56:27;101760.09;;;13.23;74.44
24752;BME280;27246;52.376;4.628;2023-04-30T23:01:29;101756.81;;;13.19;74.43
24752;BME280;27246;52.376;4.628;2023-04-30T23:06:30;101755.13;;;13.10;75.17
24752;BME280;27246;52.376;4.628;2023-04-30T23:11:32;101752.72;;;13.07;75.30
24752;BME280;27246;52.376;4.628;2023-04-30T23:16:34;101744.47;;;12.98;75.30
24752;BME280;27246;52.376;4.628;2023-04-30T23:21:40;101755.88;;;12.95;75.95
24752;BME280;27246;52.376;4.628;2023-04-30T23:26:44;101749.50;;;12.87;75.92
24752;BME280;27246;52.376;4.628;2023-04-30T23:31:48;101745.88;;;12.86;75.88
24752;BME280;27246;52.376;4.628;2023-04-30T23:36:51;101738.63;;;12.85;75.38
24752;BME280;27246;52.376;4.628;2023-04-30T23:41:54;101730.91;;;12.72;75.85
24752;BME280;27246;52.376;4.628;2023-04-30T23:46:55;101743.19;;;12.70;75.99
24752;BME280;27246;52.376;4.628;2023-04-30T23:51:58;101730.53;;;12.67;76.45
24752;BME280;27246;52.376;4.628;2023-04-30T23:56:59;101721.94;;;12.62;76.66
